createdAt,value
2022-11-05T00:00:02.809Z,1007.6
2022-11-05T00:01:01.961Z,1007.6
2022-11-05T00:02:02.152Z,1007.5
2022-11-05T00:03:01.966Z,1007.6
2022-11-05T00:04:02.210Z,1007.6
2022-11-05T00:05:02.037Z,1007.7
2022-11-05T00:06:02.103Z,1007.6
2022-11-05T00:07:02.001Z,1007.7
2022-11-05T00:08:02.001Z,1007.7
2022-11-05T00:09:01.939Z,1007.8
2022-11-05T00:10:01.932Z,1007.8
2022-11-05T00:11:01.786Z,1007.8
2022-11-05T00:12:02.755Z,1007.8
2022-11-05T00:13:02.707Z,1007.8
2022-11-05T00:14:02.690Z,1007.7
2022-11-05T00:15:02.610Z,1007.7
2022-11-05T00:16:02.696Z,1007.9
2022-11-05T00:17:02.716Z,1007.8
2022-11-05T00:18:02.686Z,1007.8
2022-11-05T00:19:02.590Z,1007.7
2022-11-05T00:20:02.540Z,1007.8
2022-11-05T00:21:02.512Z,1007.8
2022-11-05T00:22:02.460Z,1007.8
2022-11-05T00:23:02.398Z,1007.9
2022-11-05T00:24:02.397Z,1007.9
2022-11-05T00:25:02.335Z,1007.9
2022-11-05T00:26:02.221Z,1007.9
2022-11-05T00:27:02.208Z,1007.9
2022-11-05T00:28:02.102Z,1007.9
2022-11-05T00:29:02.193Z,1007.9
2022-11-05T00:30:02.076Z,1008
2022-11-05T00:31:02.418Z,1008
2022-11-05T00:32:02.266Z,1008.1
2022-11-05T00:33:02.201Z,1008
2022-11-05T00:34:02.118Z,1008.1
2022-11-05T00:35:02.092Z,1008.1
2022-11-05T00:36:01.984Z,1008.1
2022-11-05T00:37:02.361Z,1008.1
2022-11-05T00:38:02.191Z,1008.1
2022-11-05T00:39:02.100Z,1008.1
2022-11-05T00:40:02.214Z,1008.1
2022-11-05T00:41:02.022Z,1008.1
2022-11-05T00:42:01.948Z,1008.1
2022-11-05T00:43:01.831Z,1008.1
2022-11-05T00:44:02.743Z,1008.1
2022-11-05T00:45:03.106Z,1008.1
2022-11-05T00:46:02.743Z,1008
2022-11-05T00:47:02.686Z,1008.2
2022-11-05T00:48:02.635Z,1008.1
2022-11-05T00:49:02.630Z,1008.1
2022-11-05T00:50:02.563Z,1008.1
2022-11-05T00:51:02.553Z,1008.1
2022-11-05T00:52:02.517Z,1008.1
2022-11-05T00:53:02.411Z,1008.1
2022-11-05T00:54:02.380Z,1008.1
2022-11-05T00:55:02.722Z,1008.2
2022-11-05T00:56:02.539Z,1008.1
2022-11-05T00:57:05.269Z,1008.2
2022-11-05T00:58:02.070Z,1008.3
2022-11-05T00:59:02.099Z,1008.2
2022-11-05T01:00:02.026Z,1008.3
2022-11-05T01:01:01.902Z,1008.1
2022-11-05T01:02:02.228Z,1008.2
2022-11-05T01:03:02.026Z,1008.1
2022-11-05T01:04:01.980Z,1008.2
2022-11-05T01:05:01.962Z,1008.1
2022-11-05T01:06:01.908Z,1008.1
2022-11-05T01:07:01.738Z,1008.1
2022-11-05T01:08:02.784Z,1008.1
2022-11-05T01:09:02.617Z,1008.1
2022-11-05T01:10:02.643Z,1008.2
2022-11-05T01:11:02.521Z,1008.2
2022-11-05T01:12:02.487Z,1008.2
2022-11-05T01:13:02.462Z,1008.2
2022-11-05T01:14:02.417Z,1008.2
2022-11-05T01:15:02.323Z,1008.2
2022-11-05T01:16:02.269Z,1008.1
2022-11-05T01:17:02.191Z,1008.2
2022-11-05T01:18:02.255Z,1008.2
2022-11-05T01:19:02.159Z,1008.2
2022-11-05T01:20:02.200Z,1008.2
2022-11-05T01:21:02.078Z,1008.2
2022-11-05T01:22:02.131Z,1008.1
2022-11-05T01:23:02.002Z,1008.1
2022-11-05T01:24:01.984Z,1008
2022-11-05T01:25:01.911Z,1008.1
2022-11-05T01:26:01.911Z,1008.1
2022-11-05T01:27:01.789Z,1008.1
2022-11-05T01:28:02.770Z,1008.1
2022-11-05T01:29:02.934Z,1008.1
2022-11-05T01:30:02.788Z,1008.1
2022-11-05T01:31:02.782Z,1008.1
2022-11-05T01:32:02.762Z,1008.1
2022-11-05T01:33:02.711Z,1008
2022-11-05T01:34:02.692Z,1008
2022-11-05T01:35:02.574Z,1008.1
2022-11-05T01:36:02.576Z,1008.1
2022-11-05T01:37:02.547Z,1008.2
2022-11-05T01:38:02.500Z,1008.2
2022-11-05T01:39:02.423Z,1008.2
2022-11-05T01:40:02.870Z,1008.3
2022-11-05T01:41:02.703Z,1008.3
2022-11-05T01:42:02.666Z,1008.3
2022-11-05T01:43:02.592Z,1008.3
2022-11-05T01:44:02.526Z,1008.3
2022-11-05T01:45:02.548Z,1008.3
2022-11-05T01:46:02.276Z,1008.3
2022-11-05T01:47:02.632Z,1008.3
2022-11-05T01:48:02.452Z,1008.3
2022-11-05T01:49:04.085Z,1008.2
2022-11-05T01:50:01.891Z,1008.4
2022-11-05T01:51:01.795Z,1008.4
2022-11-05T01:52:02.726Z,1008.3
2022-11-05T01:53:02.694Z,1008.3
2022-11-05T01:54:02.667Z,1008.5
2022-11-05T01:55:02.575Z,1008.3
2022-11-05T01:56:02.539Z,1008.4
2022-11-05T01:57:02.519Z,1008.5
2022-11-05T01:58:02.421Z,1008.4
2022-11-05T01:59:02.358Z,1008.4
2022-11-05T02:00:02.303Z,1008.4
2022-11-05T02:01:02.008Z,1008.5
2022-11-05T02:02:02.412Z,1008.5
2022-11-05T02:03:02.579Z,1008.5
2022-11-05T02:04:02.423Z,1008.5
2022-11-05T02:05:02.345Z,1008.4
2022-11-05T02:06:02.290Z,1008.5
2022-11-05T02:07:02.187Z,1008.6
2022-11-05T02:08:02.146Z,1008.6
2022-11-05T02:09:02.082Z,1008.5
2022-11-05T02:10:02.130Z,1008.5
2022-11-05T02:11:01.999Z,1008.6
2022-11-05T02:12:01.936Z,1008.7
2022-11-05T02:13:01.855Z,1008.6
2022-11-05T02:14:01.833Z,1008.7
2022-11-05T02:15:02.820Z,1008.7
2022-11-05T02:16:02.430Z,1008.6
2022-11-05T02:17:02.400Z,1008.8
2022-11-05T02:18:02.393Z,1008.8
2022-11-05T02:19:02.260Z,1008.9
2022-11-05T02:20:02.244Z,1008.8
2022-11-05T02:21:02.220Z,1008.8
2022-11-05T02:22:02.076Z,1008.8
2022-11-05T02:23:02.008Z,1008.9
2022-11-05T02:24:01.886Z,1008.9
2022-11-05T02:25:01.887Z,1009
2022-11-05T02:26:02.780Z,1009
2022-11-05T02:27:02.708Z,1008.9
2022-11-05T02:28:02.655Z,1008.9
2022-11-05T02:29:02.596Z,1008.9
2022-11-05T02:30:02.595Z,1009
2022-11-05T02:31:02.532Z,1008.9
2022-11-05T02:32:02.574Z,1008.9
2022-11-05T02:33:02.531Z,1008.9
2022-11-05T02:34:02.465Z,1008.9
2022-11-05T02:35:02.561Z,1008.9
2022-11-05T02:36:02.527Z,1009
2022-11-05T02:37:02.465Z,1009
2022-11-05T02:38:02.369Z,1009.1
2022-11-05T02:39:02.372Z,1009.1
2022-11-05T02:40:02.763Z,1009.1
2022-11-05T02:41:02.664Z,1009.2
2022-11-05T02:42:05.749Z,1009.2
2022-11-05T02:43:02.562Z,1009.1
2022-11-05T02:44:02.577Z,1009.1
2022-11-05T02:45:02.646Z,1009.1
2022-11-05T02:46:02.760Z,1009.1
2022-11-05T02:47:02.677Z,1009
2022-11-05T02:48:02.520Z,1009.1
2022-11-05T02:49:02.641Z,1009.1
2022-11-05T02:50:02.511Z,1009.2
2022-11-05T02:51:02.592Z,1009.2
2022-11-05T02:52:02.568Z,1009.2
2022-11-05T02:53:02.465Z,1009.2
2022-11-05T02:54:02.474Z,1009.1
2022-11-05T02:55:02.441Z,1009.2
2022-11-05T02:56:02.371Z,1009.2
2022-11-05T02:57:02.376Z,1009.1
2022-11-05T02:58:02.402Z,1009.2
2022-11-05T02:59:02.245Z,1009.3
2022-11-05T03:00:02.436Z,1009.3
2022-11-05T03:01:01.963Z,1009.3
2022-11-05T03:02:02.499Z,1009.4
2022-11-05T03:03:02.822Z,1009.3
2022-11-05T03:04:02.664Z,1009.3
2022-11-05T03:05:03.343Z,1009.3
2022-11-05T03:06:02.132Z,1009.3
2022-11-05T03:07:02.102Z,1009.3
2022-11-05T03:08:02.002Z,1009.3
2022-11-05T03:09:02.034Z,1009.3
2022-11-05T03:10:01.826Z,1009.2
2022-11-05T03:11:02.840Z,1009.3
2022-11-05T03:12:02.707Z,1009.3
2022-11-05T03:13:02.783Z,1009.3
2022-11-05T03:14:02.607Z,1009.4
2022-11-05T03:15:02.680Z,1009.4
2022-11-05T03:16:02.548Z,1009.6
2022-11-05T03:17:02.607Z,1009.5
2022-11-05T03:18:02.544Z,1009.5
2022-11-05T03:19:02.818Z,1009.5
2022-11-05T03:20:02.719Z,1009.5
2022-11-05T03:21:02.584Z,1009.5
2022-11-05T03:22:02.564Z,1009.5
2022-11-05T03:23:02.525Z,1009.5
2022-11-05T03:24:02.405Z,1009.5
2022-11-05T03:25:02.458Z,1009.5
2022-11-05T03:26:02.764Z,1009.6
2022-11-05T03:27:02.573Z,1009.5
2022-11-05T03:28:02.599Z,1009.6
2022-11-05T03:29:02.877Z,1009.5
2022-11-05T03:30:02.703Z,1009.6
2022-11-05T03:31:02.582Z,1009.5
2022-11-05T03:32:02.621Z,1009.5
2022-11-05T03:33:02.605Z,1009.7
2022-11-05T03:34:02.435Z,1009.6
2022-11-05T03:35:02.555Z,1009.6
2022-11-05T03:36:02.492Z,1009.6
2022-11-05T03:37:02.429Z,1009.6
2022-11-05T03:38:02.468Z,1009.6
2022-11-05T03:39:02.392Z,1009.6
2022-11-05T03:40:02.226Z,1009.6
2022-11-05T03:41:02.264Z,1009.6
2022-11-05T03:42:02.122Z,1009.7
2022-11-05T03:43:02.132Z,1009.8
2022-11-05T03:44:02.000Z,1009.7
2022-11-05T03:45:01.939Z,1009.8
2022-11-05T03:46:01.814Z,1009.8
2022-11-05T03:47:02.766Z,1009.8
2022-11-05T03:48:02.732Z,1009.9
2022-11-05T03:49:02.998Z,1009.9
2022-11-05T03:50:01.882Z,1009.9
2022-11-05T03:51:02.848Z,1009.9
2022-11-05T03:52:02.739Z,1009.9
2022-11-05T03:53:02.781Z,1009.9
2022-11-05T03:54:02.667Z,1009.9
2022-11-05T03:55:02.667Z,1009.9
2022-11-05T03:56:02.696Z,1009.9
2022-11-05T03:57:02.722Z,1009.8
2022-11-05T03:58:02.626Z,1009.8
2022-11-05T03:59:02.662Z,1009.8
2022-11-05T04:00:02.640Z,1009.8
2022-11-05T04:01:02.330Z,1009.9
2022-11-05T04:02:02.792Z,1009.9
2022-11-05T04:03:03.014Z,1010
2022-11-05T04:04:01.827Z,1009.9
2022-11-05T04:05:02.895Z,1010
2022-11-05T04:06:02.725Z,1010
2022-11-05T04:07:02.721Z,1010
2022-11-05T04:08:02.580Z,1010
2022-11-05T04:09:02.677Z,1010.1
2022-11-05T04:10:02.822Z,1010.1
2022-11-05T04:11:02.712Z,1010.1
2022-11-05T04:12:02.563Z,1010.1
2022-11-05T04:13:02.613Z,1010.2
2022-11-05T04:14:02.592Z,1010.2
2022-11-05T04:15:02.408Z,1010.2
2022-11-05T04:16:02.441Z,1010.2
2022-11-05T04:17:02.703Z,1010.2
2022-11-05T04:18:02.497Z,1010.2
2022-11-05T04:19:02.644Z,1010.1
2022-11-05T04:20:02.601Z,1010.1
2022-11-05T04:21:02.453Z,1010.1
2022-11-05T04:22:02.524Z,1010.1
2022-11-05T04:23:02.455Z,1010.2
2022-11-05T04:24:02.244Z,1010.2
2022-11-05T04:25:02.272Z,1010.2
2022-11-05T04:26:02.086Z,1010.2
2022-11-05T04:27:02.143Z,1010.2
2022-11-05T04:28:01.917Z,1010.2
2022-11-05T04:29:08.344Z,1010.2
2022-11-05T04:30:02.261Z,1010.2
2022-11-05T04:31:01.868Z,1010.3
2022-11-05T04:32:01.854Z,1010.3
2022-11-05T04:33:02.780Z,1010.2
2022-11-05T04:34:02.679Z,1010.3
2022-11-05T04:35:02.746Z,1010.3
2022-11-05T04:36:02.570Z,1010.3
2022-11-05T04:37:02.600Z,1010.3
2022-11-05T04:38:02.600Z,1010.3
2022-11-05T04:39:02.447Z,1010.2
2022-11-05T04:40:02.589Z,1010.3
2022-11-05T04:41:02.530Z,1010.3
2022-11-05T04:42:02.378Z,1010.3
2022-11-05T04:43:02.486Z,1010.3
2022-11-05T04:44:02.415Z,1010.3
2022-11-05T04:45:02.376Z,1010.4
2022-11-05T04:46:02.448Z,1010.4
2022-11-05T04:47:02.557Z,1010.3
2022-11-05T04:48:02.495Z,1010.4
2022-11-05T04:49:02.338Z,1010.3
2022-11-05T04:50:02.863Z,1010.4
2022-11-05T04:51:02.781Z,1010.4
2022-11-05T04:52:02.609Z,1010.4
2022-11-05T04:53:02.689Z,1010.4
2022-11-05T04:54:02.561Z,1010.4
2022-11-05T04:55:03.060Z,1010.4
2022-11-05T04:56:01.857Z,1010.4
2022-11-05T04:57:01.815Z,1010.5
2022-11-05T04:58:02.796Z,1010.4
2022-11-05T04:59:02.644Z,1010.5
2022-11-05T05:00:02.706Z,1010.4
2022-11-05T05:01:02.729Z,1010.5
2022-11-05T05:02:02.998Z,1010.5
2022-11-05T05:03:01.822Z,1010.5
2022-11-05T05:04:01.886Z,1010.5
2022-11-05T05:05:02.774Z,1010.5
2022-11-05T05:06:04.769Z,1010.6
2022-11-05T05:07:02.579Z,1010.5
2022-11-05T05:08:02.614Z,1010.5
2022-11-05T05:09:02.712Z,1010.5
2022-11-05T05:10:02.563Z,1010.6
2022-11-05T05:11:02.568Z,1010.5
2022-11-05T05:12:02.593Z,1010.5
2022-11-05T05:13:03.211Z,1010.6
2022-11-05T05:14:02.010Z,1010.6
2022-11-05T05:15:02.021Z,1010.6
2022-11-05T05:16:02.795Z,1010.6
2022-11-05T05:17:02.687Z,1010.6
2022-11-05T05:18:02.833Z,1010.6
2022-11-05T05:19:02.682Z,1010.6
2022-11-05T05:20:02.676Z,1010.6
2022-11-05T05:21:02.530Z,1010.7
2022-11-05T05:22:02.589Z,1010.6
2022-11-05T05:23:02.552Z,1010.6
2022-11-05T05:24:02.365Z,1010.6
2022-11-05T05:25:02.436Z,1010.7
2022-11-05T05:26:02.368Z,1010.7
2022-11-05T05:27:02.198Z,1010.7
2022-11-05T05:28:02.216Z,1010.7
2022-11-05T05:29:02.057Z,1010.8
2022-11-05T05:30:02.148Z,1010.8
2022-11-05T05:31:02.118Z,1010.7
2022-11-05T05:32:02.078Z,1010.7
2022-11-05T05:33:01.897Z,1010.8
2022-11-05T05:34:01.877Z,1010.8
2022-11-05T05:35:02.760Z,1010.7
2022-11-05T05:36:11.792Z,1010.7
2022-11-05T05:37:02.596Z,1010.7
2022-11-05T05:38:02.684Z,1010.7
2022-11-05T05:39:02.545Z,1010.7
2022-11-05T05:40:02.636Z,1010.6
2022-11-05T05:41:02.458Z,1010.7
2022-11-05T05:42:02.515Z,1010.8
2022-11-05T05:43:02.442Z,1010.8
2022-11-05T05:44:02.338Z,1010.8
2022-11-05T05:45:02.428Z,1010.9
2022-11-05T05:46:02.131Z,1010.9
2022-11-05T05:47:02.151Z,1010.9
2022-11-05T05:48:02.056Z,1011
2022-11-05T05:49:01.930Z,1010.9
2022-11-05T05:50:02.860Z,1010.9
2022-11-05T05:51:02.735Z,1011
2022-11-05T05:52:03.263Z,1010.9
2022-11-05T05:53:02.042Z,1010.9
2022-11-05T05:54:02.045Z,1010.9
2022-11-05T05:55:01.842Z,1010.9
2022-11-05T05:56:01.890Z,1011
2022-11-05T05:57:02.788Z,1011
2022-11-05T05:58:03.087Z,1011
2022-11-05T05:59:01.940Z,1011
2022-11-05T06:00:01.932Z,1011.1
2022-11-05T06:01:02.631Z,1011.1
2022-11-05T06:02:03.094Z,1011.1
2022-11-05T06:03:02.197Z,1011.1
2022-11-05T06:04:02.086Z,1011.1
2022-11-05T06:05:01.894Z,1011.1
2022-11-05T06:06:01.906Z,1011.1
2022-11-05T06:07:02.764Z,1011.2
2022-11-05T06:08:02.689Z,1011.1
2022-11-05T06:09:02.746Z,1011.2
2022-11-05T06:10:02.602Z,1011.2
2022-11-05T06:11:03.055Z,1011.2
2022-11-05T06:12:01.894Z,1011.3
2022-11-05T06:13:01.934Z,1011.3
2022-11-05T06:14:02.832Z,1011.3
2022-11-05T06:15:02.705Z,1011.2
2022-11-05T06:16:01.789Z,1011.3
2022-11-05T06:17:02.201Z,1011.3
2022-11-05T06:18:01.972Z,1011.3
2022-11-05T06:19:01.975Z,1011.3
2022-11-05T06:20:01.878Z,1011.3
2022-11-05T06:21:02.251Z,1011.4
2022-11-05T06:22:02.107Z,1011.4
2022-11-05T06:23:02.728Z,1011.4
2022-11-05T06:24:02.643Z,1011.5
2022-11-05T06:25:02.714Z,1011.5
2022-11-05T06:26:02.578Z,1011.6
2022-11-05T06:27:02.642Z,1011.6
2022-11-05T06:28:02.556Z,1011.6
2022-11-05T06:29:02.619Z,1011.6
2022-11-05T06:30:02.559Z,1011.7
2022-11-05T06:31:02.663Z,1011.7
2022-11-05T06:32:02.586Z,1011.8
2022-11-05T06:33:02.510Z,1011.8
2022-11-05T06:34:02.363Z,1011.8
2022-11-05T06:35:02.360Z,1011.8
2022-11-05T06:36:02.301Z,1011.8
2022-11-05T06:37:02.072Z,1011.9
2022-11-05T06:38:02.039Z,1011.9
2022-11-05T06:39:01.832Z,1011.9
2022-11-05T06:40:01.860Z,1011.9
2022-11-05T06:41:11.032Z,1011.9
2022-11-05T06:42:19.812Z,1011.9
2022-11-05T06:43:02.592Z,1011.9
2022-11-05T06:44:02.711Z,1011.9
2022-11-05T06:45:02.568Z,1012
2022-11-05T06:46:02.268Z,1012
2022-11-05T06:47:02.310Z,1012.1
2022-11-05T06:48:02.127Z,1012
2022-11-05T06:49:02.105Z,1012.1
2022-11-05T06:50:01.890Z,1012.1
2022-11-05T06:51:01.872Z,1012.2
2022-11-05T06:52:02.970Z,1012.2
2022-11-05T06:53:01.712Z,1012.1
2022-11-05T06:54:02.792Z,1012.2
2022-11-05T06:55:02.858Z,1012.1
2022-11-05T06:56:02.735Z,1012.2
2022-11-05T06:57:02.608Z,1012.3
2022-11-05T06:58:02.725Z,1012.2
2022-11-05T06:59:02.583Z,1012.3
2022-11-05T07:00:08.567Z,1012.4
2022-11-05T07:01:02.681Z,1012.4
2022-11-05T07:02:02.866Z,1012.3
2022-11-05T07:03:02.735Z,1012.4
2022-11-05T07:04:02.753Z,1012.4
2022-11-05T07:05:02.647Z,1012.4
2022-11-05T07:06:02.690Z,1012.4
2022-11-05T07:07:02.545Z,1012.3
2022-11-05T07:08:02.603Z,1012.3
2022-11-05T07:09:02.558Z,1012.3
2022-11-05T07:10:02.508Z,1012.4
2022-11-05T07:11:02.376Z,1012.3
2022-11-05T07:12:02.395Z,1012.4
2022-11-05T07:13:09.322Z,1012.4
2022-11-05T07:14:02.167Z,1012.5
2022-11-05T07:15:02.241Z,1012.5
2022-11-05T07:16:02.028Z,1012.5
2022-11-05T07:17:01.991Z,1012.5
2022-11-05T07:18:01.774Z,1012.5
2022-11-05T07:19:03.267Z,1012.5
2022-11-05T07:20:02.078Z,1012.6
2022-11-05T07:21:02.033Z,1012.4
2022-11-05T07:22:01.848Z,1012.5
2022-11-05T07:23:02.008Z,1012.6
2022-11-05T07:24:01.780Z,1012.6
2022-11-05T07:25:02.815Z,1012.6
2022-11-05T07:26:02.824Z,1012.6
2022-11-05T07:27:02.686Z,1012.6
2022-11-05T07:28:02.631Z,1012.6
2022-11-05T07:29:02.666Z,1012.6
2022-11-05T07:30:02.546Z,1012.6
2022-11-05T07:31:02.316Z,1012.6
2022-11-05T07:32:02.291Z,1012.6
2022-11-05T07:33:02.149Z,1012.7
2022-11-05T07:34:02.109Z,1012.7
2022-11-05T07:35:01.880Z,1012.7
2022-11-05T07:36:01.869Z,1012.7
2022-11-05T07:37:02.796Z,1012.8
2022-11-05T07:38:02.679Z,1012.7
2022-11-05T07:39:02.720Z,1012.7
2022-11-05T07:40:02.604Z,1012.7
2022-11-05T07:41:02.684Z,1012.7
2022-11-05T07:42:02.545Z,1012.7
2022-11-05T07:43:02.541Z,1012.8
2022-11-05T07:44:02.481Z,1012.8
2022-11-05T07:45:02.332Z,1012.8
2022-11-05T07:46:02.224Z,1012.8
2022-11-05T07:47:02.264Z,1012.8
2022-11-05T07:48:02.036Z,1012.9
2022-11-05T07:49:02.035Z,1012.9
2022-11-05T07:50:01.884Z,1012.9
2022-11-05T07:51:02.892Z,1012.9
2022-11-05T07:52:02.737Z,1012.9
2022-11-05T07:53:02.714Z,1012.9
2022-11-05T07:54:02.689Z,1013
2022-11-05T07:55:02.719Z,1012.9
2022-11-05T07:56:02.544Z,1012.9
2022-11-05T07:57:03.102Z,1013
2022-11-05T07:58:01.878Z,1012.9
2022-11-05T07:59:01.880Z,1013
2022-11-05T08:00:02.848Z,1012.9
2022-11-05T08:01:02.797Z,1012.9
2022-11-05T08:02:04.104Z,1012.9
2022-11-05T08:03:09.186Z,1012.9
2022-11-05T08:04:02.118Z,1012.9
2022-11-05T08:05:02.104Z,1012.9
2022-11-05T08:06:01.912Z,1012.9
2022-11-05T08:07:01.890Z,1012.9
2022-11-05T08:08:02.813Z,1012.9
2022-11-05T08:09:02.677Z,1012.9
2022-11-05T08:10:02.706Z,1012.9
2022-11-05T08:11:02.699Z,1012.8
2022-11-05T08:12:03.880Z,1012.8
2022-11-05T08:13:02.672Z,1012.8
2022-11-05T08:14:02.747Z,1012.8
2022-11-05T08:15:02.620Z,1012.9
2022-11-05T08:16:02.476Z,1012.9
2022-11-05T08:17:02.483Z,1012.8
2022-11-05T08:18:02.471Z,1012.9
2022-11-05T08:19:02.258Z,1012.9
2022-11-05T08:20:02.656Z,1012.9
2022-11-05T08:21:02.542Z,1013
2022-11-05T08:22:02.428Z,1012.9
2022-11-05T08:23:02.410Z,1013
2022-11-05T08:24:02.319Z,1013
2022-11-05T08:25:07.412Z,1013.1
2022-11-05T08:26:02.217Z,1013
2022-11-05T08:27:02.278Z,1013.1
2022-11-05T08:28:02.145Z,1013.1
2022-11-05T08:29:02.201Z,1013.1
2022-11-05T08:30:02.097Z,1013.1
2022-11-05T08:31:02.042Z,1013.1
2022-11-05T08:32:02.380Z,1013.1
2022-11-05T08:33:02.283Z,1013.2
2022-11-05T08:34:03.417Z,1013.1
2022-11-05T08:35:02.206Z,1013.2
2022-11-05T08:36:02.271Z,1013.3
2022-11-05T08:37:02.038Z,1013.3
2022-11-05T08:38:02.044Z,1013.2
2022-11-05T08:39:01.969Z,1013.3
2022-11-05T08:40:01.800Z,1013.2
2022-11-05T08:41:02.851Z,1013.3
2022-11-05T08:42:02.666Z,1013.3
2022-11-05T08:43:02.742Z,1013.3
2022-11-05T08:44:02.598Z,1013.3
2022-11-05T08:45:02.598Z,1013.2
2022-11-05T08:46:02.391Z,1013.3
2022-11-05T08:47:02.207Z,1013.3
2022-11-05T08:48:02.258Z,1013.3
2022-11-05T08:49:02.039Z,1013.3
2022-11-05T08:50:02.085Z,1013.3
2022-11-05T08:51:01.882Z,1013.3
2022-11-05T08:52:01.943Z,1013.4
2022-11-05T08:53:01.767Z,1013.4
2022-11-05T08:54:02.843Z,1013.3
2022-11-05T08:55:02.795Z,1013.4
2022-11-05T08:56:02.690Z,1013.4
2022-11-05T08:57:02.622Z,1013.4
2022-11-05T08:58:02.715Z,1013.4
2022-11-05T08:59:03.001Z,1013.5
2022-11-05T09:00:01.869Z,1013.5
2022-11-05T09:01:06.148Z,1013.5
2022-11-05T09:02:02.436Z,1013.4
2022-11-05T09:03:02.375Z,1013.4
2022-11-05T09:04:02.262Z,1013.4
2022-11-05T09:05:02.061Z,1013.4
2022-11-05T09:06:02.508Z,1013.3
2022-11-05T09:07:02.416Z,1013.4
2022-11-05T09:08:02.319Z,1013.3
2022-11-05T09:09:02.215Z,1013.4
2022-11-05T09:10:01.993Z,1013.4
2022-11-05T09:11:02.024Z,1013.4
2022-11-05T09:12:13.588Z,1013.4
2022-11-05T09:13:02.348Z,1013.4
2022-11-05T09:14:02.439Z,1013.4
2022-11-05T09:15:02.424Z,1013.4
2022-11-05T09:16:02.066Z,1013.4
2022-11-05T09:17:02.070Z,1013.4
2022-11-05T09:18:01.892Z,1013.4
2022-11-05T09:19:01.902Z,1013.4
2022-11-05T09:20:02.784Z,1013.4
2022-11-05T09:21:02.708Z,1013.4
2022-11-05T09:22:02.755Z,1013.5
2022-11-05T09:23:02.678Z,1013.5
2022-11-05T09:24:02.735Z,1013.5
2022-11-05T09:25:02.586Z,1013.5
2022-11-05T09:26:02.655Z,1013.5
2022-11-05T09:27:02.538Z,1013.5
2022-11-05T09:28:02.531Z,1013.5
2022-11-05T09:29:02.465Z,1013.5
2022-11-05T09:30:02.313Z,1013.5
2022-11-05T09:31:02.169Z,1013.5
2022-11-05T09:32:02.122Z,1013.5
2022-11-05T09:33:01.865Z,1013.5
2022-11-05T09:34:01.919Z,1013.5
2022-11-05T09:35:02.788Z,1013.5
2022-11-05T09:36:02.682Z,1013.6
2022-11-05T09:37:02.727Z,1013.6
2022-11-05T09:38:02.642Z,1013.5
2022-11-05T09:39:02.752Z,1013.6
2022-11-05T09:40:02.590Z,1013.6
2022-11-05T09:41:02.642Z,1013.6
2022-11-05T09:42:02.639Z,1013.6
2022-11-05T09:43:02.510Z,1013.6
2022-11-05T09:44:02.470Z,1013.6
2022-11-05T09:45:02.411Z,1013.6
2022-11-05T09:46:02.096Z,1013.6
2022-11-05T09:47:02.087Z,1013.5
2022-11-05T09:48:02.132Z,1013.6
2022-11-05T09:49:02.094Z,1013.7
2022-11-05T09:50:01.909Z,1013.7
2022-11-05T09:51:01.902Z,1013.7
2022-11-05T09:52:02.824Z,1013.6
2022-11-05T09:53:02.675Z,1013.7
2022-11-05T09:54:02.752Z,1013.7
2022-11-05T09:55:02.627Z,1013.6
2022-11-05T09:56:02.737Z,1013.7
2022-11-05T09:57:02.612Z,1013.7
2022-11-05T09:58:02.666Z,1013.7
2022-11-05T09:59:02.510Z,1013.7
2022-11-05T10:00:02.594Z,1013.7
2022-11-05T10:01:02.554Z,1013.8
2022-11-05T10:02:03.175Z,1013.7
2022-11-05T10:03:02.637Z,1013.7
2022-11-05T10:04:02.635Z,1013.7
2022-11-05T10:05:10.730Z,1013.8
2022-11-05T10:06:02.608Z,1013.8
2022-11-05T10:07:02.642Z,1013.7
2022-11-05T10:08:02.519Z,1013.8
2022-11-05T10:09:01.761Z,1013.8
2022-11-05T10:10:02.804Z,1013.9
2022-11-05T10:11:03.291Z,1013.8
2022-11-05T10:12:02.043Z,1013.8
2022-11-05T10:13:02.027Z,1013.8
2022-11-05T10:14:01.838Z,1013.8
2022-11-05T10:15:01.872Z,1013.9
2022-11-05T10:16:02.783Z,1013.8
2022-11-05T10:17:02.689Z,1013.8
2022-11-05T10:18:02.795Z,1013.8
2022-11-05T10:19:02.700Z,1013.8
2022-11-05T10:20:02.744Z,1013.9
2022-11-05T10:21:02.636Z,1013.9
2022-11-05T10:22:07.857Z,1013.9
2022-11-05T10:23:02.676Z,1013.9
2022-11-05T10:24:02.707Z,1013.9
2022-11-05T10:25:02.616Z,1013.9
2022-11-05T10:26:03.057Z,1013.9
2022-11-05T10:27:01.932Z,1013.9
2022-11-05T10:28:02.857Z,1014
2022-11-05T10:29:02.685Z,1014
2022-11-05T10:30:03.150Z,1014
2022-11-05T10:31:02.402Z,1014
2022-11-05T10:32:02.481Z,1014.1
2022-11-05T10:33:02.366Z,1014.1
2022-11-05T10:34:02.145Z,1014.1
2022-11-05T10:35:02.118Z,1014.1
2022-11-05T10:36:01.865Z,1014.1
2022-11-05T10:37:01.921Z,1014.1
2022-11-05T10:38:01.870Z,1014.1
2022-11-05T10:39:01.892Z,1014.1
2022-11-05T10:40:02.828Z,1014
2022-11-05T10:41:02.661Z,1014.1
2022-11-05T10:42:02.703Z,1014.1
2022-11-05T10:43:02.619Z,1014
2022-11-05T10:44:02.597Z,1014
2022-11-05T10:45:02.513Z,1014
2022-11-05T10:46:02.199Z,1014
2022-11-05T10:47:02.184Z,1014
2022-11-05T10:48:01.936Z,1014
2022-11-05T10:49:01.943Z,1014
2022-11-05T10:50:01.797Z,1014
2022-11-05T10:51:02.802Z,1014
2022-11-05T10:52:02.669Z,1014
2022-11-05T10:53:02.692Z,1014.1
2022-11-05T10:54:02.905Z,1014
2022-11-05T10:55:02.826Z,1014
2022-11-05T10:56:02.716Z,1014
2022-11-05T10:57:02.773Z,1014.1
2022-11-05T10:58:02.634Z,1014.1
2022-11-05T10:59:09.495Z,1014
2022-11-05T11:00:02.731Z,1014
2022-11-05T11:01:02.024Z,1014.1
2022-11-05T11:02:02.336Z,1014.1
2022-11-05T11:03:02.329Z,1014.1
2022-11-05T11:04:02.105Z,1014.1
2022-11-05T11:05:02.088Z,1014.1
2022-11-05T11:06:01.845Z,1014.1
2022-11-05T11:07:01.897Z,1014.2
2022-11-05T11:08:02.909Z,1014.1
2022-11-05T11:09:02.731Z,1014.1
2022-11-05T11:10:02.809Z,1014.2
2022-11-05T11:11:02.739Z,1014.2
2022-11-05T11:12:03.256Z,1014.2
2022-11-05T11:13:02.041Z,1014.2
2022-11-05T11:14:02.052Z,1014.2
2022-11-05T11:15:01.947Z,1014.3
2022-11-05T11:16:01.913Z,1014.2
2022-11-05T11:17:01.959Z,1014.3
2022-11-05T11:18:01.801Z,1014.3
2022-11-05T11:19:02.883Z,1014.3
2022-11-05T11:20:02.720Z,1014.3
2022-11-05T11:21:02.849Z,1014.3
2022-11-05T11:22:02.707Z,1014.3
2022-11-05T11:23:02.769Z,1014.3
2022-11-05T11:24:02.640Z,1014.3
2022-11-05T11:25:02.672Z,1014.3
2022-11-05T11:26:02.471Z,1014.3
2022-11-05T11:27:02.488Z,1014.3
2022-11-05T11:28:02.439Z,1014.4
2022-11-05T11:29:02.229Z,1014.3
2022-11-05T11:30:02.213Z,1014.3
2022-11-05T11:31:01.872Z,1014.3
2022-11-05T11:32:01.938Z,1014.4
2022-11-05T11:33:01.886Z,1014.4
2022-11-05T11:34:02.855Z,1014.4
2022-11-05T11:35:02.734Z,1014.3
2022-11-05T11:36:02.759Z,1014.4
2022-11-05T11:37:02.580Z,1014.4
2022-11-05T11:38:02.688Z,1014.4
2022-11-05T11:39:02.454Z,1014.4
2022-11-05T11:40:02.532Z,1014.4
2022-11-05T11:41:02.433Z,1014.4
2022-11-05T11:42:02.235Z,1014.4
2022-11-05T11:43:02.237Z,1014.4
2022-11-05T11:44:02.083Z,1014.4
2022-11-05T11:45:01.922Z,1014.4
2022-11-05T11:46:15.079Z,1014.4
2022-11-05T11:47:01.966Z,1014.4
2022-11-05T11:48:01.983Z,1014.4
2022-11-05T11:49:01.825Z,1014.4
2022-11-05T11:50:01.817Z,1014.5
2022-11-05T11:51:02.832Z,1014.5
2022-11-05T11:52:02.646Z,1014.4
2022-11-05T11:53:01.951Z,1014.5
2022-11-05T11:54:01.793Z,1014.5
2022-11-05T11:55:01.870Z,1014.5
2022-11-05T11:56:01.835Z,1014.5
2022-11-05T11:57:02.825Z,1014.5
2022-11-05T11:58:02.706Z,1014.5
2022-11-05T11:59:02.707Z,1014.4
2022-11-05T12:00:10.437Z,1014.4
2022-11-05T12:01:02.627Z,1014.4
2022-11-05T12:02:03.284Z,1014.5
2022-11-05T12:03:02.967Z,1014.4
2022-11-05T12:04:01.840Z,1014.4
2022-11-05T12:05:02.848Z,1014.5
2022-11-05T12:06:01.791Z,1014.5
2022-11-05T12:07:01.933Z,1014.5
2022-11-05T12:08:01.794Z,1014.5
2022-11-05T12:09:07.486Z,1014.5
2022-11-05T12:10:02.392Z,1014.5
2022-11-05T12:11:02.656Z,1014.5
2022-11-05T12:12:02.689Z,1014.5
2022-11-05T12:13:02.460Z,1014.5
2022-11-05T12:14:02.508Z,1014.6
2022-11-05T12:15:02.414Z,1014.5
2022-11-05T12:16:02.255Z,1014.6
2022-11-05T12:17:02.242Z,1014.6
2022-11-05T12:18:02.079Z,1014.6
2022-11-05T12:19:01.932Z,1014.7
2022-11-05T12:20:01.808Z,1014.7
2022-11-05T12:21:01.833Z,1014.7
2022-11-05T12:22:01.857Z,1014.7
2022-11-05T12:23:01.907Z,1014.7
2022-11-05T12:24:01.813Z,1014.7
2022-11-05T12:25:02.842Z,1014.7
2022-11-05T12:26:02.749Z,1014.7
2022-11-05T12:27:02.750Z,1014.7
2022-11-05T12:28:02.634Z,1014.7
2022-11-05T12:29:19.886Z,1014.7
2022-11-05T12:30:02.700Z,1014.8
2022-11-05T12:31:02.794Z,1014.8